createdAt,value
2017-10-20T00:00:27.780Z,0
2017-10-20T00:01:29.436Z,0
2017-10-20T00:02:31.089Z,0
2017-10-20T00:03:32.748Z,0
2017-10-20T00:04:34.397Z,0
2017-10-20T00:05:36.061Z,0
2017-10-20T00:06:37.715Z,0
2017-10-20T00:07:39.374Z,0
2017-10-20T00:08:41.037Z,0
2017-10-20T00:09:42.690Z,0
2017-10-20T00:10:44.344Z,0
2017-10-20T00:11:46.006Z,0
2017-10-20T00:12:47.664Z,0
2017-10-20T00:13:49.310Z,0
2017-10-20T00:14:50.957Z,0
2017-10-20T00:15:52.609Z,0
2017-10-20T00:16:54.273Z,0
2017-10-20T00:17:55.932Z,0
2017-10-20T00:18:57.591Z,0
2017-10-20T00:19:59.236Z,0
2017-10-20T00:21:00.889Z,0
2017-10-20T00:22:02.547Z,0
2017-10-20T00:23:04.209Z,0
2017-10-20T00:24:05.858Z,0
2017-10-20T00:25:07.518Z,0
2017-10-20T00:26:09.232Z,0
2017-10-20T00:27:10.882Z,0
2017-10-20T00:28:12.536Z,0
2017-10-20T00:29:14.193Z,0
2017-10-20T00:30:15.857Z,0
2017-10-20T00:31:17.507Z,0
2017-10-20T00:32:19.167Z,0
2017-10-20T00:33:20.820Z,0
2017-10-20T00:34:22.472Z,0
2017-10-20T00:35:24.249Z,0
2017-10-20T00:36:25.913Z,0
2017-10-20T00:37:27.561Z,0
2017-10-20T00:38:29.223Z,0
2017-10-20T00:39:30.872Z,0
2017-10-20T00:40:32.534Z,0
2017-10-20T00:41:34.191Z,0
2017-10-20T00:42:35.856Z,0
2017-10-20T00:43:37.507Z,0
2017-10-20T00:44:39.155Z,0
2017-10-20T00:45:40.812Z,0
2017-10-20T00:46:42.475Z,0
2017-10-20T00:47:44.131Z,0
2017-10-20T00:48:45.787Z,0
2017-10-20T00:49:47.442Z,0
2017-10-20T00:50:49.100Z,0
2017-10-20T00:51:50.757Z,0
2017-10-20T00:52:52.424Z,0
2017-10-20T00:53:54.102Z,0
2017-10-20T00:54:55.762Z,0
2017-10-20T00:55:57.409Z,0
2017-10-20T00:56:59.070Z,0
2017-10-20T00:58:00.720Z,0
2017-10-20T00:59:02.382Z,0
2017-10-20T01:00:04.036Z,0
2017-10-20T01:01:05.692Z,0
2017-10-20T01:02:07.355Z,0
2017-10-20T01:03:09.014Z,0
2017-10-20T01:04:10.672Z,0
2017-10-20T01:05:12.325Z,0
2017-10-20T01:06:13.982Z,0
2017-10-20T01:07:15.638Z,0
2017-10-20T01:08:17.288Z,0
2017-10-20T01:09:18.953Z,0
2017-10-20T01:10:20.610Z,0
2017-10-20T01:11:22.265Z,0
2017-10-20T01:12:23.924Z,0
2017-10-20T01:13:25.578Z,0
2017-10-20T01:14:27.238Z,0
2017-10-20T01:15:28.900Z,0
2017-10-20T01:16:30.558Z,0
2017-10-20T01:17:32.208Z,0
2017-10-20T01:18:33.854Z,0
2017-10-20T01:19:35.509Z,0
2017-10-20T01:20:37.156Z,0
2017-10-20T01:21:38.809Z,0
2017-10-20T01:22:40.473Z,0
2017-10-20T01:23:42.135Z,0
2017-10-20T01:24:43.794Z,0
2017-10-20T01:25:45.451Z,0
2017-10-20T01:26:47.106Z,0
2017-10-20T01:27:48.756Z,0
2017-10-20T01:28:50.411Z,0
2017-10-20T01:29:52.067Z,0
2017-10-20T01:30:53.722Z,0
2017-10-20T01:31:55.375Z,0
2017-10-20T01:32:57.030Z,0
2017-10-20T01:33:58.965Z,0
2017-10-20T01:35:00.620Z,0
2017-10-20T01:36:02.290Z,0
2017-10-20T01:37:03.947Z,0
2017-10-20T01:38:05.603Z,0
2017-10-20T01:39:07.268Z,0
2017-10-20T01:40:08.926Z,0
2017-10-20T01:41:10.576Z,0
2017-10-20T01:42:12.240Z,0
2017-10-20T01:43:13.906Z,0
2017-10-20T01:44:15.565Z,0
2017-10-20T01:45:17.228Z,0
2017-10-20T01:46:18.880Z,0
2017-10-20T01:47:20.540Z,0
2017-10-20T01:48:22.192Z,0
2017-10-20T01:49:23.858Z,0
2017-10-20T01:50:25.539Z,0
2017-10-20T01:51:27.198Z,0
2017-10-20T01:52:28.851Z,0
2017-10-20T01:53:30.497Z,0
2017-10-20T01:54:32.148Z,0
2017-10-20T01:55:33.810Z,0
2017-10-20T02:01:40.949Z,0
2017-10-20T02:02:42.596Z,0
2017-10-20T02:03:44.247Z,0
2017-10-20T02:04:45.902Z,0
2017-10-20T02:05:47.564Z,0
2017-10-20T02:06:49.218Z,0
2017-10-20T02:07:50.879Z,0
2017-10-20T02:08:52.534Z,0
2017-10-20T02:09:54.189Z,0
2017-10-20T02:10:55.841Z,0
2017-10-20T02:11:57.500Z,0
2017-10-20T02:12:59.171Z,0
2017-10-20T02:14:00.807Z,0
2017-10-20T02:15:02.465Z,0
2017-10-20T02:16:04.149Z,0
2017-10-20T02:17:05.793Z,0
2017-10-20T02:18:07.451Z,0
2017-10-20T02:19:09.101Z,0
2017-10-20T02:20:10.761Z,0
2017-10-20T02:21:12.439Z,0
2017-10-20T02:22:14.099Z,0
2017-10-20T02:23:15.761Z,0
2017-10-20T02:24:17.409Z,0
2017-10-20T02:25:19.060Z,0
2017-10-20T02:26:20.710Z,0
2017-10-20T02:27:22.360Z,0
2017-10-20T02:28:24.019Z,0
2017-10-20T02:29:25.670Z,0
2017-10-20T02:30:27.374Z,0
2017-10-20T02:31:29.267Z,0
2017-10-20T02:32:30.920Z,0
2017-10-20T02:33:32.570Z,0
2017-10-20T02:34:34.222Z,0
2017-10-20T02:35:35.877Z,0
2017-10-20T02:36:37.525Z,0
2017-10-20T02:37:39.186Z,0
2017-10-20T02:38:40.842Z,0
2017-10-20T02:39:42.495Z,0
2017-10-20T02:40:44.158Z,0
2017-10-20T02:41:45.814Z,0
2017-10-20T02:42:47.523Z,0
2017-10-20T02:43:49.178Z,0
2017-10-20T02:44:50.839Z,0
2017-10-20T02:45:52.495Z,0
2017-10-20T02:46:54.165Z,0
2017-10-20T02:47:55.785Z,0
2017-10-20T02:48:57.443Z,0
2017-10-20T02:49:59.127Z,0
2017-10-20T02:51:00.787Z,0
2017-10-20T02:52:02.440Z,0
2017-10-20T02:53:04.101Z,0
2017-10-20T02:54:05.753Z,0
2017-10-20T02:55:07.404Z,0
2017-10-20T02:56:09.092Z,0
2017-10-20T02:57:10.744Z,0
2017-10-20T02:58:12.391Z,0
2017-10-20T02:59:14.058Z,0
2017-10-20T03:00:15.701Z,0
2017-10-20T03:01:17.349Z,0
2017-10-20T03:02:19.081Z,0
2017-10-20T03:03:20.734Z,0
2017-10-20T03:04:22.385Z,0
2017-10-20T03:05:24.031Z,0
2017-10-20T03:06:25.690Z,0
2017-10-20T03:07:27.355Z,0
2017-10-20T03:08:29.017Z,0
2017-10-20T03:09:30.716Z,0
2017-10-20T03:10:32.372Z,0
2017-10-20T03:11:34.024Z,0
2017-10-20T03:12:35.748Z,0
2017-10-20T03:13:37.412Z,0
2017-10-20T03:14:39.064Z,0
2017-10-20T03:15:40.716Z,0
2017-10-20T03:16:42.375Z,0
2017-10-20T03:17:44.054Z,0
2017-10-20T03:18:45.705Z,0
2017-10-20T03:19:47.358Z,0
2017-10-20T03:20:49.013Z,0
2017-10-20T03:21:50.669Z,0
2017-10-20T03:22:52.324Z,0
2017-10-20T03:23:53.992Z,0
2017-10-20T03:24:55.726Z,0
2017-10-20T03:25:57.375Z,0
2017-10-20T03:26:59.035Z,0
2017-10-20T03:28:00.691Z,0
2017-10-20T03:29:02.354Z,0
2017-10-20T03:30:04.007Z,0
2017-10-20T03:31:05.670Z,0
2017-10-20T03:32:07.327Z,0
2017-10-20T03:33:08.980Z,0
2017-10-20T03:34:10.643Z,0
2017-10-20T03:35:12.299Z,0
2017-10-20T03:36:13.952Z,0
2017-10-20T03:37:15.607Z,0
2017-10-20T03:38:17.265Z,0
2017-10-20T03:39:18.925Z,0
2017-10-20T03:40:20.582Z,0
2017-10-20T03:41:22.246Z,0
2017-10-20T03:42:23.893Z,0
2017-10-20T03:43:25.543Z,0
2017-10-20T03:44:27.196Z,0
2017-10-20T03:45:29.452Z,0
2017-10-20T03:46:31.880Z,0
2017-10-20T03:47:34.081Z,0
2017-10-20T03:48:36.825Z,0
2017-10-20T03:49:39.346Z,0
2017-10-20T03:50:40.998Z,0
2017-10-20T03:51:42.651Z,0
2017-10-20T03:52:44.334Z,0
2017-10-20T03:53:45.997Z,0
2017-10-20T03:54:47.648Z,0
2017-10-20T03:55:49.301Z,0
2017-10-20T03:56:50.961Z,0
2017-10-20T03:57:52.618Z,0
2017-10-20T03:58:54.264Z,0
2017-10-20T03:59:55.915Z,0
2017-10-20T04:00:57.570Z,0
2017-10-20T04:01:59.229Z,0
2017-10-20T04:03:00.890Z,0
2017-10-20T04:04:02.549Z,0
2017-10-20T04:05:04.207Z,0
2017-10-20T04:06:05.858Z,0
2017-10-20T04:07:07.518Z,0
2017-10-20T04:08:09.203Z,0
2017-10-20T04:09:10.856Z,0
2017-10-20T04:10:12.512Z,0
2017-10-20T04:11:14.167Z,0
2017-10-20T04:12:15.829Z,0
2017-10-20T04:13:17.490Z,0
2017-10-20T04:14:19.137Z,0
2017-10-20T04:15:20.790Z,0
2017-10-20T04:16:22.463Z,0
2017-10-20T04:17:24.119Z,0
2017-10-20T04:18:25.773Z,0
2017-10-20T04:19:27.442Z,0
2017-10-20T04:20:29.094Z,0
2017-10-20T04:21:30.753Z,0
2017-10-20T04:22:32.409Z,0
2017-10-20T04:23:34.087Z,0
2017-10-20T04:24:35.744Z,0
2017-10-20T04:25:37.406Z,0
2017-10-20T04:26:39.057Z,0
2017-10-20T04:27:40.710Z,0
2017-10-20T04:28:42.363Z,0
2017-10-20T04:29:44.018Z,0
2017-10-20T04:30:45.679Z,0
2017-10-20T04:31:47.346Z,0
2017-10-20T04:32:49.005Z,0
2017-10-20T04:33:50.655Z,0
2017-10-20T04:34:52.312Z,0
2017-10-20T04:35:53.993Z,0
2017-10-20T04:36:55.651Z,0
2017-10-20T04:37:57.324Z,0
2017-10-20T04:38:58.968Z,0
2017-10-20T04:40:00.631Z,0
2017-10-20T04:41:02.289Z,0
2017-10-20T04:42:03.940Z,0
2017-10-20T04:43:05.600Z,0
2017-10-20T04:44:07.258Z,0
2017-10-20T04:45:08.921Z,0
2017-10-20T04:46:10.585Z,0
2017-10-20T04:47:12.243Z,0
2017-10-20T04:48:13.889Z,0
2017-10-20T04:49:15.550Z,0
2017-10-20T04:50:17.200Z,0
2017-10-20T04:51:18.851Z,0
2017-10-20T04:52:20.507Z,0
2017-10-20T04:53:22.158Z,0
2017-10-20T04:54:23.819Z,0
2017-10-20T04:55:25.530Z,0
2017-10-20T04:56:27.260Z,0
2017-10-20T04:57:28.904Z,0
2017-10-20T04:58:30.557Z,0
2017-10-20T04:59:32.239Z,0
2017-10-20T05:00:33.904Z,0
2017-10-20T05:01:35.598Z,0
2017-10-20T05:02:37.238Z,0
2017-10-20T05:03:38.916Z,0
2017-10-20T05:04:40.603Z,0
2017-10-20T05:05:42.264Z,0
2017-10-20T05:06:43.917Z,0
2017-10-20T05:07:45.571Z,0
2017-10-20T05:08:47.232Z,0
2017-10-20T05:09:48.895Z,0
2017-10-20T05:10:50.548Z,0
2017-10-20T05:11:52.199Z,0
2017-10-20T05:12:53.866Z,0
2017-10-20T05:13:55.879Z,0
2017-10-20T05:14:57.538Z,0
2017-10-20T05:15:59.374Z,0
2017-10-20T05:17:01.092Z,0
2017-10-20T05:18:04.136Z,0
2017-10-20T05:19:05.793Z,0
2017-10-20T05:20:07.464Z,0
2017-10-20T05:21:09.126Z,0
2017-10-20T05:22:10.787Z,0
2017-10-20T05:23:12.447Z,0
2017-10-20T05:24:14.186Z,0
2017-10-20T05:25:15.837Z,4
2017-10-20T05:26:17.696Z,0
2017-10-20T05:27:19.348Z,0
2017-10-20T05:28:21.010Z,4
2017-10-20T05:29:22.661Z,0
2017-10-20T05:30:24.314Z,4
2017-10-20T05:31:26.014Z,4
2017-10-20T05:32:27.650Z,4
2017-10-20T05:33:29.319Z,8
2017-10-20T05:34:31.580Z,8
2017-10-20T05:35:33.237Z,4
2017-10-20T05:36:34.898Z,8
2017-10-20T05:37:36.580Z,12
2017-10-20T05:38:38.411Z,12
2017-10-20T05:39:40.067Z,12
2017-10-20T05:40:41.754Z,12
2017-10-20T05:41:43.435Z,16
2017-10-20T05:42:45.157Z,16
2017-10-20T05:43:46.874Z,20
2017-10-20T05:44:48.555Z,24
2017-10-20T05:45:50.218Z,24
2017-10-20T05:46:51.878Z,28
2017-10-20T05:47:53.537Z,36
2017-10-20T05:48:55.187Z,44
2017-10-20T05:49:56.865Z,52
2017-10-20T05:50:58.524Z,60
2017-10-20T05:52:00.188Z,68
2017-10-20T05:53:01.868Z,76
2017-10-20T05:54:03.554Z,80
2017-10-20T05:55:05.220Z,92
2017-10-20T06:01:15.264Z,176
2017-10-20T06:02:16.953Z,196
2017-10-20T06:03:18.616Z,212
2017-10-20T06:04:20.271Z,212
2017-10-20T06:05:21.920Z,224
2017-10-20T06:06:23.591Z,256
2017-10-20T06:07:25.290Z,296
2017-10-20T06:08:26.948Z,336
2017-10-20T06:09:28.600Z,356
2017-10-20T06:10:30.256Z,368
2017-10-20T06:11:31.913Z,388
2017-10-20T06:12:33.567Z,424
2017-10-20T06:13:35.233Z,456
2017-10-20T06:14:36.896Z,460
2017-10-20T06:15:38.552Z,472
2017-10-20T06:16:40.208Z,512
2017-10-20T06:17:41.864Z,552
2017-10-20T06:18:43.579Z,592
2017-10-20T06:19:45.252Z,640
2017-10-20T06:20:46.914Z,688
2017-10-20T06:21:48.574Z,720
2017-10-20T06:22:50.281Z,736
2017-10-20T06:23:51.975Z,736
2017-10-20T06:24:53.631Z,716
2017-10-20T06:25:55.298Z,692
2017-10-20T06:26:56.952Z,676
2017-10-20T06:27:58.625Z,680
2017-10-20T06:29:00.305Z,696
2017-10-20T06:30:01.983Z,744
2017-10-20T06:31:03.637Z,784
2017-10-20T06:32:05.325Z,800
2017-10-20T06:33:06.992Z,792
2017-10-20T06:34:08.649Z,796
2017-10-20T06:35:10.304Z,844
2017-10-20T06:36:11.975Z,928
2017-10-20T06:37:13.634Z,944
2017-10-20T06:38:15.290Z,880
2017-10-20T06:39:16.954Z,792
2017-10-20T06:40:18.626Z,720
2017-10-20T06:41:20.289Z,672
2017-10-20T06:42:21.952Z,664
2017-10-20T06:43:23.685Z,732
2017-10-20T06:44:25.369Z,876
2017-10-20T06:45:27.048Z,1024
2017-10-20T06:46:28.719Z,1212
2017-10-20T06:47:30.419Z,1416
2017-10-20T06:48:32.078Z,1620
2017-10-20T06:49:33.742Z,1788
2017-10-20T06:50:35.407Z,1908
2017-10-20T06:51:37.096Z,1988
2017-10-20T06:52:38.759Z,2068
2017-10-20T06:53:40.422Z,2184
2017-10-20T06:54:42.084Z,2312
2017-10-20T06:55:43.736Z,2284
2017-10-20T06:56:45.397Z,2156
2017-10-20T06:57:47.054Z,1920
2017-10-20T06:58:48.713Z,1620
2017-10-20T06:59:50.380Z,1332
2017-10-20T07:00:52.066Z,1208
2017-10-20T07:01:53.745Z,1256
2017-10-20T07:02:55.421Z,1344
2017-10-20T07:03:57.081Z,1396
2017-10-20T07:04:58.749Z,1452
2017-10-20T07:06:00.420Z,1400
2017-10-20T07:07:02.083Z,1336
2017-10-20T07:08:03.770Z,1356
2017-10-20T07:09:05.474Z,1460
2017-10-20T07:10:07.143Z,1556
2017-10-20T07:11:08.817Z,1632
2017-10-20T07:12:10.479Z,1696
2017-10-20T07:13:12.145Z,1732
2017-10-20T07:14:13.801Z,1696
2017-10-20T07:15:15.481Z,1740
2017-10-20T07:16:17.143Z,1976
2017-10-20T07:17:18.808Z,2012
2017-10-20T07:18:20.500Z,1828
2017-10-20T07:19:22.167Z,1680
2017-10-20T07:20:23.827Z,1540
2017-10-20T07:21:25.496Z,1352
2017-10-20T07:22:27.151Z,1172
2017-10-20T07:23:28.816Z,1060
2017-10-20T07:24:30.478Z,1060
2017-10-20T07:25:32.148Z,1208
2017-10-20T07:26:33.820Z,1416
2017-10-20T07:27:35.485Z,1556
2017-10-20T07:28:37.151Z,1532
2017-10-20T07:29:38.803Z,1328
2017-10-20T07:30:40.502Z,1196
2017-10-20T07:31:42.168Z,1232
2017-10-20T07:32:43.842Z,1340
2017-10-20T07:33:45.507Z,1388
2017-10-20T07:34:47.174Z,1384
2017-10-20T07:35:48.885Z,1432
2017-10-20T07:36:50.560Z,1640
2017-10-20T07:37:52.205Z,1996
2017-10-20T07:38:53.865Z,2276
2017-10-20T07:39:55.543Z,2156
2017-10-20T07:40:57.194Z,1792
2017-10-20T07:41:58.852Z,1636
2017-10-20T07:43:00.519Z,1480
2017-10-20T07:44:02.185Z,1428
2017-10-20T07:45:03.853Z,1472
2017-10-20T07:46:05.508Z,1580
2017-10-20T07:47:07.166Z,1648
2017-10-20T07:48:08.824Z,1636
2017-10-20T07:49:10.483Z,1660
2017-10-20T07:50:12.151Z,1692
2017-10-20T07:51:13.811Z,1652
2017-10-20T07:52:15.482Z,1596
2017-10-20T07:53:17.149Z,1456
2017-10-20T07:54:18.804Z,1212
2017-10-20T07:55:20.467Z,976
2017-10-20T07:56:22.128Z,828
2017-10-20T07:57:23.784Z,768
2017-10-20T07:58:25.466Z,848
2017-10-20T07:59:27.132Z,1036
2017-10-20T08:00:28.791Z,1176
2017-10-20T08:01:30.449Z,1160
2017-10-20T08:02:32.111Z,1040
2017-10-20T08:03:33.779Z,948
2017-10-20T08:04:35.436Z,996
2017-10-20T08:05:37.104Z,996
2017-10-20T08:06:38.765Z,1056
2017-10-20T08:07:40.433Z,1092
2017-10-20T08:08:42.111Z,1216
2017-10-20T08:09:43.775Z,1500
2017-10-20T08:10:45.436Z,1480
2017-10-20T08:11:47.103Z,1408
2017-10-20T08:12:48.764Z,1396
2017-10-20T08:13:50.427Z,1444
2017-10-20T08:14:52.088Z,1564
2017-10-20T08:15:53.747Z,1552
2017-10-20T08:16:55.416Z,1424
2017-10-20T08:17:57.094Z,1312
2017-10-20T08:18:58.749Z,1292
2017-10-20T08:20:00.418Z,1576
2017-10-20T08:21:02.099Z,2124
2017-10-20T08:22:03.754Z,2776
2017-10-20T08:23:05.413Z,3440
2017-10-20T08:24:07.079Z,3860
2017-10-20T08:25:08.744Z,3616
2017-10-20T08:26:10.410Z,3220
2017-10-20T08:27:12.064Z,2668
2017-10-20T08:28:13.715Z,2180
2017-10-20T08:29:15.365Z,2348
2017-10-20T08:30:17.034Z,2616
2017-10-20T08:31:18.696Z,2848
2017-10-20T08:32:20.359Z,2644
2017-10-20T08:33:22.020Z,2120
2017-10-20T08:34:23.684Z,1780
2017-10-20T08:35:25.371Z,1780
2017-10-20T08:36:27.031Z,1848
2017-10-20T08:37:28.723Z,1836
2017-10-20T08:38:30.398Z,1700
2017-10-20T08:39:32.063Z,1544
2017-10-20T08:40:33.724Z,1400
2017-10-20T08:41:35.378Z,1308
2017-10-20T08:42:37.043Z,1236
2017-10-20T08:43:38.700Z,1360
2017-10-20T08:44:40.360Z,1460
2017-10-20T08:45:42.030Z,1424
2017-10-20T08:46:43.690Z,1464
2017-10-20T08:47:45.365Z,1708
2017-10-20T08:48:47.006Z,2424
2017-10-20T08:49:48.668Z,4012
2017-10-20T08:50:50.353Z,5948
2017-10-20T08:51:52.020Z,6844
2017-10-20T08:52:53.690Z,6904
2017-10-20T08:53:55.351Z,6352
2017-10-20T08:54:57.025Z,5332
2017-10-20T08:55:58.692Z,4616
2017-10-20T08:57:00.358Z,4112
2017-10-20T08:58:02.057Z,3912
2017-10-20T08:59:03.682Z,4356
2017-10-20T09:00:05.354Z,5040
2017-10-20T09:01:07.024Z,5284
2017-10-20T09:02:08.680Z,5016
2017-10-20T09:03:10.363Z,5548
2017-10-20T09:04:12.038Z,7932
2017-10-20T09:05:13.732Z,12140
2017-10-20T09:06:15.413Z,17504
2017-10-20T09:07:17.084Z,25312
2017-10-20T09:08:18.903Z,30912
2017-10-20T09:09:20.561Z,29376
2017-10-20T09:10:22.240Z,27712
2017-10-20T09:11:23.896Z,21088
2017-10-20T09:12:25.580Z,24096
2017-10-20T09:13:27.232Z,29696
2017-10-20T09:14:28.906Z,29920
2017-10-20T09:15:30.558Z,21120
2017-10-20T09:16:32.221Z,37472
2017-10-20T09:17:33.898Z,21344
2017-10-20T09:18:35.576Z,26432
2017-10-20T09:19:37.244Z,40096
2017-10-20T09:20:38.918Z,32512
2017-10-20T09:21:40.587Z,36480
2017-10-20T09:22:42.251Z,33120
2017-10-20T09:23:43.916Z,53600
2017-10-20T09:24:45.584Z,35168
2017-10-20T09:25:47.251Z,48000
2017-10-20T09:26:48.939Z,45120
2017-10-20T09:27:50.606Z,35232
2017-10-20T09:28:52.277Z,34880
2017-10-20T09:29:53.970Z,36800
2017-10-20T09:30:55.631Z,37984
2017-10-20T09:31:57.330Z,33728
2017-10-20T09:32:59.021Z,38528
2017-10-20T09:34:00.693Z,39680
2017-10-20T09:35:02.357Z,31296
2017-10-20T09:36:04.039Z,28736
2017-10-20T09:37:05.709Z,26752
2017-10-20T09:38:07.387Z,26592
2017-10-20T09:39:09.072Z,24608
2017-10-20T09:40:10.738Z,21856
2017-10-20T09:41:12.411Z,17600
2017-10-20T09:42:14.123Z,19968
2017-10-20T09:43:15.791Z,26592
2017-10-20T09:44:17.467Z,27296
2017-10-20T09:45:19.132Z,26816
2017-10-20T09:46:20.825Z,22144
2017-10-20T09:47:22.499Z,19968
2017-10-20T09:48:24.176Z,17376
2017-10-20T09:49:25.851Z,16240
2017-10-20T09:50:27.535Z,16176
2017-10-20T09:51:29.205Z,17012
2017-10-20T09:52:30.880Z,18752
2017-10-20T09:53:32.561Z,19136
2017-10-20T09:54:34.232Z,17548
2017-10-20T09:55:35.904Z,15876
2017-10-20T10:02:04.491Z,13464
2017-10-20T10:03:06.167Z,14732
2017-10-20T10:04:58.012Z,13012
2017-10-20T10:05:59.694Z,11396
2017-10-20T10:07:51.829Z,10904
2017-10-20T10:08:53.491Z,9748
2017-10-20T10:09:55.160Z,10316
2017-10-20T10:10:56.829Z,11944
2017-10-20T10:11:58.487Z,10712
2017-10-20T10:13:00.157Z,9940
2017-10-20T10:14:01.823Z,10764
2017-10-20T10:15:03.492Z,8400
2017-10-20T10:16:05.154Z,7124
2017-10-20T10:17:06.813Z,7408
2017-10-20T10:18:08.475Z,7976
2017-10-20T10:19:10.135Z,10508
2017-10-20T10:20:11.797Z,11872
2017-10-20T10:21:13.463Z,8032
2017-10-20T10:22:15.125Z,6500
2017-10-20T10:23:16.789Z,6856
2017-10-20T10:24:18.478Z,6808
2017-10-20T10:25:20.158Z,6268
2017-10-20T10:26:21.986Z,4392
2017-10-20T10:27:23.645Z,4068
2017-10-20T10:28:25.339Z,3384
2017-10-20T10:29:27.003Z,2876
2017-10-20T10:30:28.672Z,2684
2017-10-20T10:31:30.321Z,2848
2017-10-20T10:32:31.985Z,3156
2017-10-20T10:33:33.645Z,2616
2017-10-20T10:34:35.332Z,2984
2017-10-20T10:35:37.013Z,3884
2017-10-20T10:36:38.691Z,6500
2017-10-20T10:37:40.364Z,7364
2017-10-20T10:38:42.024Z,5984
2017-10-20T10:39:43.686Z,6256
2017-10-20T10:40:45.367Z,7804
2017-10-20T10:41:47.039Z,5916
2017-10-20T10:42:48.723Z,5888
2017-10-20T10:43:50.404Z,4888
2017-10-20T10:44:52.067Z,6016
2017-10-20T10:45:53.768Z,9368
2017-10-20T10:46:55.427Z,8044
2017-10-20T10:47:57.100Z,5608
2017-10-20T10:48:58.781Z,5116
2017-10-20T10:50:00.448Z,7784
2017-10-20T10:51:02.127Z,8784
2017-10-20T10:52:03.800Z,10708
2017-10-20T10:53:05.469Z,11408
2017-10-20T10:54:07.140Z,11116
2017-10-20T10:55:08.805Z,15172
2017-10-20T10:56:10.476Z,19136
2017-10-20T10:57:12.169Z,20320
2017-10-20T10:58:13.838Z,17792
2017-10-20T10:59:15.523Z,15216
2017-10-20T11:00:17.224Z,15496
2017-10-20T11:01:18.879Z,13528
2017-10-20T11:02:20.552Z,15460
2017-10-20T11:03:22.218Z,13488
2017-10-20T11:04:23.887Z,11712
2017-10-20T11:05:25.560Z,10004
2017-10-20T11:06:27.247Z,6756
2017-10-20T11:07:28.906Z,4516
2017-10-20T11:08:30.564Z,6136
2017-10-20T11:09:32.234Z,8320
2017-10-20T11:10:33.897Z,7000
2017-10-20T11:11:35.551Z,7072
2017-10-20T11:12:37.221Z,7372
2017-10-20T11:13:38.884Z,7584
2017-10-20T11:14:40.544Z,7840
2017-10-20T11:15:42.213Z,6976
2017-10-20T11:16:43.929Z,7572
2017-10-20T11:17:45.602Z,8336
2017-10-20T11:18:47.267Z,6148
2017-10-20T11:19:48.936Z,5476
2017-10-20T11:20:50.590Z,3692
2017-10-20T11:21:52.271Z,3928
2017-10-20T11:22:53.958Z,5128
2017-10-20T11:23:55.837Z,5880
2017-10-20T11:24:57.643Z,10580
2017-10-20T11:25:59.341Z,8132
2017-10-20T11:27:01.094Z,9404
2017-10-20T11:28:02.771Z,9784
2017-10-20T11:29:05.475Z,15784
2017-10-20T11:30:06.968Z,15848
2017-10-20T11:31:08.640Z,16584
2017-10-20T11:32:10.327Z,15872
2017-10-20T11:33:11.998Z,13320
2017-10-20T11:34:13.677Z,13396
2017-10-20T11:35:15.340Z,14712
2017-10-20T11:36:17.006Z,18656
2017-10-20T11:37:18.928Z,18112
2017-10-20T11:38:20.588Z,19456
2017-10-20T11:39:22.262Z,22656
2017-10-20T11:40:24.547Z,36416
2017-10-20T11:41:26.164Z,25120
2017-10-20T11:42:27.830Z,87776
2017-10-20T11:43:29.499Z,116640
2017-10-20T11:44:31.160Z,87360
2017-10-20T11:45:32.833Z,101568
2017-10-20T11:46:34.496Z,79200
2017-10-20T11:47:36.160Z,82592
2017-10-20T11:48:37.834Z,79712
2017-10-20T11:49:39.506Z,31424
2017-10-20T11:50:41.162Z,73856
2017-10-20T11:51:42.825Z,68224
2017-10-20T11:52:44.495Z,36448
2017-10-20T11:53:46.156Z,23520
2017-10-20T11:54:47.831Z,56352
2017-10-20T11:55:49.525Z,14944
2017-10-20T11:56:51.190Z,45792
2017-10-20T11:57:52.874Z,42048
2017-10-20T11:58:54.537Z,41760
2017-10-20T11:59:56.212Z,43360
2017-10-20T12:00:58.046Z,43552
2017-10-20T12:01:59.847Z,41888
2017-10-20T12:03:01.532Z,39040
2017-10-20T12:04:03.209Z,37664
2017-10-20T12:05:04.872Z,36256
2017-10-20T12:06:06.543Z,29152
2017-10-20T12:07:08.331Z,26208
2017-10-20T12:08:09.975Z,14896
2017-10-20T12:09:11.657Z,8508
2017-10-20T12:10:13.325Z,7792
2017-10-20T12:11:15.055Z,7648
2017-10-20T12:12:16.722Z,9424
2017-10-20T12:13:18.386Z,11920
2017-10-20T12:14:20.062Z,24832
2017-10-20T12:15:24.984Z,33088
2017-10-20T12:16:26.706Z,30272
2017-10-20T12:17:28.393Z,26976
2017-10-20T12:18:30.082Z,23712
2017-10-20T12:19:31.747Z,22432
2017-10-20T12:20:33.424Z,21408
2017-10-20T12:21:35.097Z,21216
2017-10-20T12:22:36.766Z,24096
2017-10-20T12:23:38.430Z,18588
2017-10-20T12:24:40.096Z,21664
2017-10-20T12:25:42.082Z,19104
2017-10-20T12:26:43.743Z,30720
2017-10-20T12:27:45.413Z,33344
2017-10-20T12:28:47.077Z,18008
2017-10-20T12:29:48.762Z,14004
2017-10-20T12:30:50.438Z,13188
2017-10-20T12:31:52.117Z,13708
2017-10-20T12:32:53.777Z,13760
2017-10-20T12:33:55.445Z,24608
2017-10-20T12:34:57.134Z,25888
2017-10-20T12:35:58.818Z,26528
2017-10-20T12:37:00.493Z,25888
2017-10-20T12:38:02.156Z,23904
2017-10-20T12:39:04.187Z,13856
2017-10-20T12:40:05.838Z,18272
2017-10-20T12:41:07.535Z,20128
2017-10-20T12:42:09.220Z,17984
2017-10-20T12:43:10.935Z,14420
2017-10-20T12:44:12.602Z,14280
2017-10-20T12:45:14.270Z,14640
2017-10-20T12:46:15.937Z,16132
2017-10-20T12:47:17.611Z,19616
2017-10-20T12:48:19.282Z,20224
2017-10-20T12:49:20.938Z,15336
2017-10-20T12:50:22.625Z,11104
2017-10-20T12:51:24.288Z,14368
2017-10-20T12:52:25.971Z,8604
2017-10-20T12:53:27.636Z,15976
2017-10-20T12:54:29.294Z,8108
2017-10-20T12:55:31.026Z,7844
2017-10-20T12:56:32.703Z,7540
2017-10-20T12:57:34.382Z,6716
2017-10-20T12:58:36.041Z,7012
2017-10-20T12:59:37.711Z,7488
2017-10-20T13:00:39.407Z,7156
2017-10-20T13:01:41.082Z,13264
2017-10-20T13:02:42.741Z,13100
2017-10-20T13:03:44.408Z,13328
2017-10-20T13:04:46.128Z,13312
2017-10-20T13:05:47.811Z,13292
2017-10-20T13:06:49.476Z,11988
2017-10-20T13:07:51.153Z,13628
2017-10-20T13:08:52.829Z,11432
2017-10-20T13:09:54.616Z,20832
2017-10-20T13:10:56.476Z,22368
2017-10-20T13:11:58.140Z,22144
2017-10-20T13:12:59.828Z,20576
2017-10-20T13:14:01.498Z,19936
2017-10-20T13:15:03.316Z,14064
2017-10-20T13:16:05.054Z,12692
2017-10-20T13:17:06.808Z,11196
2017-10-20T13:18:08.542Z,11940
2017-10-20T13:19:10.559Z,18432
2017-10-20T13:20:12.373Z,19936
2017-10-20T13:21:14.210Z,18656
2017-10-20T13:22:15.923Z,11296
2017-10-20T13:23:17.615Z,10228
2017-10-20T13:24:19.296Z,10776
2017-10-20T13:25:20.986Z,9204
2017-10-20T13:26:22.650Z,8084
2017-10-20T13:27:24.315Z,8428
2017-10-20T13:28:26.018Z,11612
2017-10-20T13:29:27.672Z,11908
2017-10-20T13:30:29.622Z,10920
2017-10-20T13:31:31.252Z,9688
2017-10-20T13:32:32.922Z,14372
2017-10-20T13:33:34.586Z,15660
2017-10-20T13:34:36.478Z,16840
2017-10-20T13:35:38.156Z,17920
2017-10-20T13:36:39.842Z,18240
2017-10-20T13:37:41.546Z,12736
2017-10-20T13:38:43.374Z,15164
2017-10-20T13:39:45.254Z,15428
2017-10-20T13:40:47.119Z,18304
2017-10-20T13:41:48.812Z,18496
2017-10-20T13:42:50.473Z,16112
2017-10-20T13:43:52.168Z,13904
2017-10-20T13:44:54.025Z,12536
2017-10-20T13:45:55.698Z,12116
2017-10-20T13:46:57.389Z,11044
2017-10-20T13:47:59.078Z,10464
2017-10-20T13:49:00.743Z,9704
2017-10-20T13:50:02.435Z,9668
2017-10-20T13:51:04.122Z,9104
2017-10-20T13:52:05.819Z,8936
2017-10-20T13:53:07.475Z,7824
2017-10-20T13:54:09.167Z,9644
2017-10-20T13:55:10.847Z,11584
2017-10-20T14:01:40.572Z,8520
2017-10-20T14:02:42.236Z,8572
2017-10-20T14:03:43.902Z,8188
2017-10-20T14:04:45.568Z,7896
2017-10-20T14:05:47.243Z,7708
2017-10-20T14:06:48.917Z,7476
2017-10-20T14:07:50.579Z,6104
2017-10-20T14:08:52.260Z,5384
2017-10-20T14:09:53.929Z,5316
2017-10-20T14:10:55.598Z,5264
2017-10-20T14:11:57.272Z,5220
2017-10-20T14:12:58.950Z,5204
2017-10-20T14:14:00.608Z,5300
2017-10-20T14:15:02.303Z,6068
2017-10-20T14:16:03.966Z,7208
2017-10-20T14:17:05.641Z,6912
2017-10-20T14:18:07.323Z,6408
2017-10-20T14:19:08.991Z,6212
2017-10-20T14:20:10.756Z,5856
2017-10-20T14:21:12.417Z,5976
2017-10-20T14:22:14.099Z,6132
2017-10-20T14:23:15.754Z,5712
2017-10-20T14:24:17.424Z,5404
2017-10-20T14:25:19.081Z,5588
2017-10-20T14:26:20.741Z,6212
2017-10-20T14:27:22.405Z,6896
2017-10-20T14:28:24.080Z,7384
2017-10-20T14:29:25.736Z,7932
2017-10-20T14:30:27.422Z,9192
2017-10-20T14:31:29.087Z,10200
2017-10-20T14:32:30.758Z,9348